Time;durP1;ratioP1;P1;durP2;ratioP2;P2;SDS_P1;SDS_P2;PMS_P1;PMS_P2;Temp;Humidity;BMP_temperature;BMP_pressure;BME280_temperature;BME280_humidity;BME280_pressure;Samples;Min_cycle;Max_cycle;Signal;HPM_P1;HPM_P2
2023/04/27 00:01:11;;;;;;;35.20;16.50;;;;;;;;;;6257469;23;20024;-78
2023/04/27 00:03:57;;;;;;;30.17;14.43;;;;;;;;;;6234499;23;20019;-80
2023/04/27 00:06:42;;;;;;;28.98;14.52;;;;;;;;;;6256243;23;20020;-79
2023/04/27 00:09:28;;;;;;;27.48;14.93;;;;;;;;;;6256770;23;20016;-79
2023/04/27 00:12:14;;;;;;;33.67;15.50;;;;;;;;;;6256423;23;20441;-79
2023/04/27 00:14:59;;;;;;;36.35;16.33;;;;;;;;;;6234377;23;20016;-78
2023/04/27 00:17:45;;;;;;;40.65;20.38;;;;;;;;;;6256575;23;20012;-80
2023/04/27 00:20:30;;;;;;;47.85;22.88;;;;;;;;;;6256323;23;20023;-79
2023/04/27 00:23:16;;;;;;;58.65;25.90;;;;;;;;;;6250818;23;20024;-80
2023/04/27 00:26:02;;;;;;;48.15;23.75;;;;;;;;;;6256257;23;20016;-80
2023/04/27 00:28:48;;;;;;;76.25;31.98;;;;;;;;;;6256818;23;20016;-80
2023/04/27 00:31:33;;;;;;;96.28;35.22;;;;;;;;;;6234295;23;20016;-79
2023/04/27 00:34:19;;;;;;;155.13;46.08;;;;;;;;;;6254902;23;20016;-79
2023/04/27 00:37:06;;;;;;;34.75;18.55;;;;;;;;;;6234045;23;20016;-79
2023/04/27 00:39:51;;;;;;;69.45;28.08;;;;;;;;;;6233559;23;20024;-79
2023/04/27 00:42:37;;;;;;;33.58;16.75;;;;;;;;;;6256801;23;20024;-80
2023/04/27 00:45:23;;;;;;;41.40;18.73;;;;;;;;;;6256733;23;20019;-79
2023/04/27 00:48:12;;;;;;;29.70;15.18;;;;;;;;;;6233478;23;20329;-80
2023/04/27 00:50:59;;;;;;;22.48;11.27;;;;;;;;;;6258472;23;20016;-81
2023/04/27 00:53:45;;;;;;;20.40;11.27;;;;;;;;;;6235529;23;20013;-81
2023/04/27 00:56:31;;;;;;;26.88;13.35;;;;;;;;;;6258317;23;20016;-79
2023/04/27 00:59:18;;;;;;;23.05;12.48;;;;;;;;;;6235933;23;20457;-79
2023/04/27 01:02:03;;;;;;;25.15;12.32;;;;;;;;;;6223464;23;20016;-79
2023/04/27 01:04:49;;;;;;;27.63;13.40;;;;;;;;;;6235818;23;20012;-79
2023/04/27 01:07:38;;;;;;;25.90;13.18;;;;;;;;;;6235464;23;20020;-80
2023/04/27 01:10:24;;;;;;;20.30;10.32;;;;;;;;;;6236005;23;20016;-79
2023/04/27 01:13:09;;;;;;;14.55;8.88;;;;;;;;;;6235231;23;20016;-79
2023/04/27 01:15:56;;;;;;;11.45;6.53;;;;;;;;;;6235394;23;20024;-78
2023/04/27 01:18:43;;;;;;;13.23;6.65;;;;;;;;;;6235720;23;20024;-78
2023/04/27 01:21:32;;;;;;;12.60;7.25;;;;;;;;;;6257027;23;20449;-80
2023/04/27 01:24:17;;;;;;;15.85;7.57;;;;;;;;;;6205349;23;20020;-79
2023/04/27 01:27:03;;;;;;;12.27;7.38;;;;;;;;;;6227653;23;20016;-79
2023/04/27 01:29:51;;;;;;;16.17;7.63;;;;;;;;;;6204998;23;20013;-80
2023/04/27 01:32:37;;;;;;;14.63;7.78;;;;;;;;;;6226452;23;20021;-81
2023/04/27 01:35:22;;;;;;;18.63;7.88;;;;;;;;;;6227810;23;20445;-79
2023/04/27 01:38:07;;;;;;;14.43;8.20;;;;;;;;;;6205271;23;20025;-80
2023/04/27 01:40:54;;;;;;;12.57;7.72;;;;;;;;;;6205563;23;20020;-79
2023/04/27 01:43:42;;;;;;;13.18;7.93;;;;;;;;;;6225906;23;20021;-79
2023/04/27 01:46:28;;;;;;;16.42;8.55;;;;;;;;;;6205150;23;20020;-80
2023/04/27 01:49:14;;;;;;;18.27;8.32;;;;;;;;;;6227408;23;20017;-80
2023/04/27 01:51:59;;;;;;;14.07;7.95;;;;;;;;;;6226250;23;20017;-78
2023/04/27 01:54:44;;;;;;;14.52;7.90;;;;;;;;;;6226615;23;20342;-79
2023/04/27 01:57:30;;;;;;;11.80;7.90;;;;;;;;;;6225787;23;20021;-80
2023/04/27 02:00:15;;;;;;;16.60;8.70;;;;;;;;;;6226096;23;20028;-80
2023/04/27 02:03:06;;;;;;;26.23;8.43;;;;;;;;;;6227892;23;20016;-80
2023/04/27 02:05:51;;;;;;;13.77;7.93;;;;;;;;;;6225799;23;20461;-80
2023/04/27 02:08:37;;;;;;;14.07;7.68;;;;;;;;;;6205573;23;20016;-79
2023/04/27 02:11:23;;;;;;;14.98;7.15;;;;;;;;;;6225887;23;20016;-81
2023/04/27 02:14:09;;;;;;;12.27;6.90;;;;;;;;;;6205965;23;20016;-80
2023/04/27 02:16:54;;;;;;;12.68;7.03;;;;;;;;;;6226124;23;20016;-80
2023/04/27 02:19:41;;;;;;;10.70;6.30;;;;;;;;;;6226911;23;20024;-79
2023/04/27 02:22:26;;;;;;;11.68;6.47;;;;;;;;;;6210584;23;20421;-78
2023/04/27 02:25:12;;;;;;;9.45;5.93;;;;;;;;;;6234583;23;20020;-78
2023/04/27 02:27:57;;;;;;;11.05;5.88;;;;;;;;;;6235210;23;20024;-79
2023/04/27 02:30:43;;;;;;;13.35;5.72;;;;;;;;;;6234955;23;20016;-79
2023/04/27 02:33:28;;;;;;;9.70;5.57;;;;;;;;;;6256021;23;20016;-79
2023/04/27 02:36:15;;;;;;;7.65;5.45;;;;;;;;;;6257818;23;20020;-80
2023/04/27 02:39:00;;;;;;;10.18;5.57;;;;;;;;;;6234496;23;20020;-80
2023/04/27 02:41:45;;;;;;;10.25;5.15;;;;;;;;;;6257567;23;20453;-78
2023/04/27 02:44:31;;;;;;;8.07;5.22;;;;;;;;;;6257406;23;20020;-80
2023/04/27 02:47:17;;;;;;;10.70;6.22;;;;;;;;;;6234583;23;20016;-79
2023/04/27 02:50:02;;;;;;;12.40;5.53;;;;;;;;;;6234739;23;20349;-78
2023/04/27 02:52:51;;;;;;;7.65;5.32;;;;;;;;;;6255793;23;20016;-80
2023/04/27 02:55:37;;;;;;;10.27;5.32;;;;;;;;;;6256051;23;20016;-80
2023/04/27 02:58:23;;;;;;;8.65;5.43;;;;;;;;;;6235073;23;20016;-81
2023/04/27 03:01:08;;;;;;;9.65;5.35;;;;;;;;;;6255607;23;20024;-79
2023/04/27 03:03:53;;;;;;;8.05;4.95;;;;;;;;;;6213724;23;20430;-79
2023/04/27 03:06:37;;;;;;;6.80;4.93;;;;;;;;;;6256967;23;20345;-78
2023/04/27 03:09:23;;;;;;;9.27;5.18;;;;;;;;;;6257190;23;20016;-79
2023/04/27 03:12:08;;;;;;;9.85;5.40;;;;;;;;;;6234522;23;20016;-78
2023/04/27 03:14:53;;;;;;;8.70;5.10;;;;;;;;;;6233802;23;20433;-79
2023/04/27 03:17:39;;;;;;;11.23;5.32;;;;;;;;;;6234646;23;20016;-83
2023/04/27 03:20:24;;;;;;;10.38;4.95;;;;;;;;;;6234980;23;20024;-79
2023/04/27 03:23:12;;;;;;;13.00;5.65;;;;;;;;;;6255959;23;20012;-79
2023/04/27 03:25:58;;;;;;;12.82;5.03;;;;;;;;;;6234533;23;20337;-79
2023/04/27 03:28:43;;;;;;;14.48;6.22;;;;;;;;;;6233977;23;20012;-81
2023/04/27 03:31:29;;;;;;;11.90;5.50;;;;;;;;;;6257240;23;20012;-79
2023/04/27 03:34:14;;;;;;;10.20;5.65;;;;;;;;;;6257265;23;20012;-80
2023/04/27 03:37:00;;;;;;;15.48;6.90;;;;;;;;;;6256839;23;20016;-79
2023/04/27 03:39:51;;;;;;;10.40;5.97;;;;;;;;;;6235541;23;20353;-79
2023/04/27 03:42:36;;;;;;;14.10;6.40;;;;;;;;;;6233941;23;20012;-79
2023/04/27 03:45:23;;;;;;;13.13;6.72;;;;;;;;;;6256690;23;20016;-80
2023/04/27 03:48:09;;;;;;;14.57;6.78;;;;;;;;;;6234123;23;20015;-80
2023/04/27 03:50:55;;;;;;;12.63;7.22;;;;;;;;;;6233961;23;20012;-79
2023/04/27 03:53:41;;;;;;;11.60;7.97;;;;;;;;;;6212982;23;20433;-80
2023/04/27 03:56:26;;;;;;;15.93;8.05;;;;;;;;;;6233682;23;20339;-80
2023/04/27 03:59:12;;;;;;;17.40;7.38;;;;;;;;;;6233935;23;20020;-80
2023/04/27 04:02:04;;;;;;;11.32;5.82;;;;;;;;;;6255510;23;20012;-78
2023/04/27 04:04:49;;;;;;;10.90;5.63;;;;;;;;;;6233661;23;20020;-79
2023/04/27 04:07:36;;;;;;;7.57;4.78;;;;;;;;;;6234417;23;20020;-79
2023/04/27 04:10:21;;;;;;;12.95;5.18;;;;;;;;;;6233510;23;20281;-79
2023/04/27 04:13:08;;;;;;;11.55;5.07;;;;;;;;;;6233964;23;20016;-80
2023/04/27 04:16:08;;;;;;;11.18;6.30;;;;;;;;;;6233902;23;20016;-81
2023/04/27 04:18:54;;;;;;;17.17;8.63;;;;;;;;;;6254989;23;20016;-79
2023/04/27 04:21:39;;;;;;;15.48;9.00;;;;;;;;;;6234153;23;20024;-79
2023/04/27 04:24:25;;;;;;;19.85;9.48;;;;;;;;;;6255925;23;20016;-80
2023/04/27 04:27:10;;;;;;;35.50;11.52;;;;;;;;;;6234211;23;20020;-80
2023/04/27 04:29:55;;;;;;;28.90;11.90;;;;;;;;;;6256293;23;20046;-81
2023/04/27 04:32:41;;;;;;;39.97;15.30;;;;;;;;;;6233656;23;20016;-81
2023/04/27 04:35:26;;;;;;;39.47;16.02;;;;;;;;;;6233816;23;20348;-80
2023/04/27 04:38:12;;;;;;;35.95;17.23;;;;;;;;;;6233800;23;20020;-80
2023/04/27 04:40:58;;;;;;;36.35;16.65;;;;;;;;;;6212574;23;20028;-80
2023/04/27 04:43:43;;;;;;;40.15;17.45;;;;;;;;;;6212894;23;20016;-81
2023/04/27 04:46:29;;;;;;;44.05;17.98;;;;;;;;;;6255947;23;20024;-80
2023/04/27 04:49:15;;;;;;;99.45;35.50;;;;;;;;;;6233876;23;20337;-80
2023/04/27 04:52:00;;;;;;;75.85;29.13;;;;;;;;;;6233476;23;20016;-79
2023/04/27 04:54:45;;;;;;;64.82;29.38;;;;;;;;;;6256256;23;20020;-80
2023/04/27 04:57:31;;;;;;;60.97;24.50;;;;;;;;;;6213366;23;20016;-81
2023/04/27 05:00:17;;;;;;;40.63;16.30;;;;;;;;;;6256049;23;20024;-81
2023/04/27 05:03:02;;;;;;;41.08;17.73;;;;;;;;;;6233157;23;20016;-79
2023/04/27 05:05:48;;;;;;;24.50;11.80;;;;;;;;;;6255421;23;20020;-80
2023/04/27 05:08:34;;;;;;;24.02;12.70;;;;;;;;;;6256055;23;20445;-80
2023/04/27 05:11:21;;;;;;;28.58;12.77;;;;;;;;;;6256213;23;20336;-82
2023/04/27 05:14:05;;;;;;;26.65;13.15;;;;;;;;;;6255925;23;20433;-81
2023/04/27 05:16:50;;;;;;;34.83;15.88;;;;;;;;;;6233504;23;20020;-81
2023/04/27 05:19:36;;;;;;;34.25;14.93;;;;;;;;;;6255761;23;20016;-80
2023/04/27 05:22:21;;;;;;;39.28;16.50;;;;;;;;;;6231806;23;20016;-80
2023/04/27 05:25:07;;;;;;;24.88;12.50;;;;;;;;;;6256189;23;20015;-82
2023/04/27 05:27:53;;;;;;;20.83;9.77;;;;;;;;;;6255642;23;20016;-81
2023/04/27 05:30:38;;;;;;;19.50;9.30;;;;;;;;;;6256087;23;20016;-80
2023/04/27 05:33:28;;;;;;;24.48;10.23;;;;;;;;;;6234674;23;20028;-81
2023/04/27 05:36:13;;;;;;;20.10;9.95;;;;;;;;;;6256535;23;20020;-82
2023/04/27 05:38:58;;;;;;;27.48;11.52;;;;;;;;;;6235481;23;20017;-81
2023/04/27 05:41:49;;;;;;;22.70;11.60;;;;;;;;;;6257496;23;20020;-81
2023/04/27 05:44:35;;;;;;;24.50;12.20;;;;;;;;;;6235862;23;20433;-80
2023/04/27 05:47:19;;;;;;;24.10;10.80;;;;;;;;;;6257926;23;20020;-80
2023/04/27 05:50:06;;;;;;;21.08;9.88;;;;;;;;;;6235953;23;20016;-81
2023/04/27 05:52:57;;;;;;;23.23;9.40;;;;;;;;;;6237016;23;20020;-81
2023/04/27 05:55:42;;;;;;;19.58;9.68;;;;;;;;;;6257627;23;20016;-80
2023/04/27 05:58:30;;;;;;;18.15;8.00;;;;;;;;;;6257761;23;20013;-81
2023/04/27 06:01:16;;;;;;;14.93;6.63;;;;;;;;;;6235411;23;20020;-81
2023/04/27 06:04:01;;;;;;;11.50;6.65;;;;;;;;;;6257887;23;20016;-81
2023/04/27 06:06:46;;;;;;;13.52;5.47;;;;;;;;;;6235182;23;20016;-80
2023/04/27 06:09:34;;;;;;;12.38;5.70;;;;;;;;;;6256464;23;20437;-80
2023/04/27 06:12:22;;;;;;;5.68;2.88;;;;;;;;;;6258115;23;20016;-79
2023/04/27 06:15:09;;;;;;;12.45;6.50;;;;;;;;;;6258050;23;20460;-80
2023/04/27 06:17:55;;;;;;;13.05;5.63;;;;;;;;;;6255383;23;20013;-80
2023/04/27 06:20:46;;;;;;;13.43;6.05;;;;;;;;;;6257379;23;20016;-80
2023/04/27 06:23:35;;;;;;;12.35;6.28;;;;;;;;;;6224393;23;20020;-80
2023/04/27 06:26:20;;;;;;;9.63;4.55;;;;;;;;;;6204975;23;20020;-79
2023/04/27 06:29:07;;;;;;;7.15;4.03;;;;;;;;;;6227138;23;20013;-80
2023/04/27 06:31:53;;;;;;;6.78;3.83;;;;;;;;;;6204441;23;20012;-79
2023/04/27 06:34:43;;;;;;;9.73;4.38;;;;;;;;;;6206340;23;20013;-81
2023/04/27 06:37:34;;;;;;;8.43;4.45;;;;;;;;;;6225434;23;20425;-80
2023/04/27 06:40:25;;;;;;;5.30;3.58;;;;;;;;;;6225757;23;20016;-79
2023/04/27 06:43:16;;;;;;;4.88;3.15;;;;;;;;;;6226980;23;20016;-79
2023/04/27 06:46:02;;;;;;;6.07;2.60;;;;;;;;;;6204807;23;20016;-79
2023/04/27 06:48:51;;;;;;;3.67;2.85;;;;;;;;;;6226864;23;20013;-79
2023/04/27 06:51:40;;;;;;;5.43;3.17;;;;;;;;;;6204734;23;20013;-80
2023/04/27 06:54:30;;;;;;;6.60;3.78;;;;;;;;;;6226843;23;20016;-78
2023/04/27 06:57:21;;;;;;;7.45;3.97;;;;;;;;;;6227203;23;20441;-80
2023/04/27 07:00:07;;;;;;;5.43;2.72;;;;;;;;;;6225545;23;20021;-80
2023/04/27 07:02:52;;;;;;;10.75;2.70;;;;;;;;;;6204262;23;20021;-80
2023/04/27 07:05:38;;;;;;;6.68;2.53;;;;;;;;;;6204178;23;20016;-80
2023/04/27 07:08:24;;;;;;;4.65;2.13;;;;;;;;;;6226634;23;20016;-80
2023/04/27 07:11:11;;;;;;;4.55;2.10;;;;;;;;;;6226865;23;20017;-80
2023/04/27 07:14:01;;;;;;;4.63;1.92;;;;;;;;;;6226946;23;20021;-80
2023/04/27 07:16:46;;;;;;;2.53;1.75;;;;;;;;;;6226552;23;20012;-79
2023/04/27 07:19:31;;;;;;;2.45;1.60;;;;;;;;;;6226171;23;20020;-79
2023/04/27 07:22:18;;;;;;;3.88;1.52;;;;;;;;;;6230393;23;20333;-81
2023/04/27 07:25:10;;;;;;;4.60;2.15;;;;;;;;;;6236851;23;20421;-81
2023/04/27 07:28:00;;;;;;;1.77;1.00;;;;;;;;;;6235386;23;20016;-81
2023/04/27 07:30:51;;;;;;;3.65;2.03;;;;;;;;;;6256648;23;20016;-80
2023/04/27 07:33:37;;;;;;;4.15;2.65;;;;;;;;;;6256748;23;20020;-81
2023/04/27 07:36:23;;;;;;;6.00;2.72;;;;;;;;;;6234257;23;20339;-81
2023/04/27 07:39:08;;;;;;;4.32;2.40;;;;;;;;;;6256892;23;20023;-81
2023/04/27 07:41:59;;;;;;;3.13;2.03;;;;;;;;;;6256816;23;20024;-80
2023/04/27 07:44:45;;;;;;;1.50;1.27;;;;;;;;;;6257137;23;20016;-80
2023/04/27 07:47:31;;;;;;;2.95;1.77;;;;;;;;;;6256792;23;20016;-82
2023/04/27 07:50:17;;;;;;;8.48;2.67;;;;;;;;;;6256714;23;20015;-84
2023/04/27 07:53:03;;;;;;;6.07;2.35;;;;;;;;;;6234285;23;20020;-81
2023/04/27 07:55:49;;;;;;;5.43;2.58;;;;;;;;;;6256338;23;20020;-81
2023/04/27 07:58:36;;;;;;;2.53;1.50;;;;;;;;;;6256705;23;20437;-80
2023/04/27 08:01:26;;;;;;;6.15;1.67;;;;;;;;;;6234717;23;20020;-82
2023/04/27 08:04:11;;;;;;;1.67;1.17;;;;;;;;;;6256927;23;20016;-82
2023/04/27 08:06:56;;;;;;;1.88;1.42;;;;;;;;;;6255497;23;20016;-80
2023/04/27 08:09:51;;;;;;;1.40;1.30;;;;;;;;;;6234694;23;20016;-81
2023/04/27 08:12:36;;;;;;;2.88;1.75;;;;;;;;;;6255653;23;20020;-81
2023/04/27 08:15:21;;;;;;;3.42;1.75;;;;;;;;;;6256347;23;20016;-79
2023/04/27 08:18:12;;;;;;;2.35;1.60;;;;;;;;;;6239783;23;20016;-79
2023/04/27 08:21:03;;;;;;;5.03;2.08;;;;;;;;;;6240050;23;20020;-80
2023/04/27 08:23:53;;;;;;;3.80;1.77;;;;;;;;;;6254872;23;20020;-80
2023/04/27 08:26:43;;;;;;;2.00;1.35;;;;;;;;;;6242549;23;20015;-81
2023/04/27 08:29:35;;;;;;;3.05;1.83;;;;;;;;;;6262262;23;20016;-81
2023/04/27 08:32:20;;;;;;;2.80;1.48;;;;;;;;;;6240966;23;20016;-80
2023/04/27 08:35:12;;;;;;;6.00;1.80;;;;;;;;;;6263179;23;20016;-81
2023/04/27 08:37:57;;;;;;;3.38;1.70;;;;;;;;;;6258050;23;20046;-80
2023/04/27 08:40:42;;;;;;;4.50;1.65;;;;;;;;;;6234368;23;20032;-80
2023/04/27 08:43:37;;;;;;;2.95;1.77;;;;;;;;;;6256058;23;20429;-81
2023/04/27 08:46:27;;;;;;;2.58;1.52;;;;;;;;;;6256171;23;20016;-80
2023/04/27 08:49:19;;;;;;;1.98;1.35;;;;;;;;;;6256706;23;20043;-79
2023/04/27 08:52:16;;;;;;;1.27;1.00;;;;;;;;;;6255280;23;20013;-80
2023/04/27 08:55:03;;;;;;;3.13;1.65;;;;;;;;;;6256227;23;20020;-83
2023/04/27 08:58:00;;;;;;;3.55;2.10;;;;;;;;;;6214740;23;20430;-83
2023/04/27 09:00:47;;;;;;;7.15;2.25;;;;;;;;;;6256428;23;20016;-82
2023/04/27 09:03:35;;;;;;;6.78;2.30;;;;;;;;;;6255441;23;20016;-83
2023/04/27 09:06:33;;;;;;;8.43;2.63;;;;;;;;;;6235252;23;20016;-82
2023/04/27 09:09:22;;;;;;;3.58;1.20;;;;;;;;;;6234116;23;20421;-84
2023/04/27 09:12:17;;;;;;;3.20;1.92;;;;;;;;;;6257189;23;20332;-83
2023/04/27 09:15:09;;;;;;;2.65;1.23;;;;;;;;;;6235484;23;20020;-81
2023/04/27 09:17:59;;;;;;;3.42;1.85;;;;;;;;;;6257881;23;20039;-83
2023/04/27 09:20:51;;;;;;;2.75;1.40;;;;;;;;;;6258298;23;20421;-80
2023/04/27 09:23:39;;;;;;;3.03;1.60;;;;;;;;;;6251059;23;20016;-82
2023/04/27 09:26:30;;;;;;;2.15;1.13;;;;;;;;;;6257817;23;20020;-80
2023/04/27 09:29:16;;;;;;;2.40;1.35;;;;;;;;;;6257950;23;20016;-79
2023/04/27 09:32:01;;;;;;;1.83;1.00;;;;;;;;;;6257682;23;20432;-80
2023/04/27 09:34:47;;;;;;;3.13;1.15;;;;;;;;;;6257891;23;20437;-80
2023/04/27 09:37:33;;;;;;;6.82;1.80;;;;;;;;;;6235154;23;20016;-80
2023/04/27 09:40:29;;;;;;;8.73;4.25;;;;;;;;;;6256399;23;20368;-83
2023/04/27 09:43:16;;;;;;;2.67;1.23;;;;;;;;;;6258377;23;20016;-80
2023/04/27 09:46:03;;;;;;;4.45;1.98;;;;;;;;;;6235101;23;20020;-81
2023/04/27 09:48:50;;;;;;;2.20;1.58;;;;;;;;;;6235609;23;20024;-80
2023/04/27 09:51:37;;;;;;;13.80;1.52;;;;;;;;;;6257623;23;20012;-82
2023/04/27 09:54:27;;;;;;;5.53;2.00;;;;;;;;;;6235051;23;20020;-82
2023/04/27 09:57:38;;;;;;;641.95;229.65;;;;;;;;;;6257301;23;20016;-80
2023/04/27 10:00:47;;;;;;;1999.90;999.90;;;;;;;;;;6204770;23;20314;-81
2023/04/27 10:04:02;;;;;;;313.02;179.07;;;;;;;;;;6257306;23;20020;-81
2023/04/27 10:07:26;;;;;;;5.55;2.33;;;;;;;;;;6235528;23;20445;-81
2023/04/27 10:10:17;;;;;;;10.40;2.78;;;;;;;;;;6105919;23;20019;-80
2023/04/27 10:13:05;;;;;;;5.68;1.65;;;;;;;;;;6257649;23;20345;-82
2023/04/27 10:15:51;;;;;;;1.45;1.13;;;;;;;;;;6257304;23;20020;-80
2023/04/27 10:18:52;;;;;;;5.10;1.70;;;;;;;;;;6257504;23;20425;-81
2023/04/27 10:21:59;;;;;;;5.15;1.48;;;;;;;;;;6255783;23;20016;-82
2023/04/27 10:24:50;;;;;;;10.65;2.60;;;;;;;;;;6236344;23;20020;-82
2023/04/27 10:27:41;;;;;;;2.63;1.52;;;;;;;;;;6236526;23;20016;-79
2023/04/27 10:30:36;;;;;;;3.70;1.60;;;;;;;;;;6235312;23;20016;-79
2023/04/27 10:33:23;;;;;;;3.60;1.90;;;;;;;;;;6234641;23;20020;-79
2023/04/27 10:36:14;;;;;;;4.65;2.17;;;;;;;;;;6257088;23;20020;-80
2023/04/27 10:39:00;;;;;;;5.90;1.65;;;;;;;;;;6257292;23;20020;-80
2023/04/27 10:41:53;;;;;;;3.08;1.65;;;;;;;;;;6257076;23;20016;-81
2023/04/27 10:44:55;;;;;;;4.00;2.78;;;;;;;;;;6257973;23;20016;-80
2023/04/27 10:47:44;;;;;;;3.90;1.80;;;;;;;;;;6235165;23;20015;-81
2023/04/27 10:50:30;;;;;;;2.65;1.33;;;;;;;;;;6257150;23;20020;-80
2023/04/27 10:53:21;;;;;;;3.42;2.00;;;;;;;;;;6235990;23;20016;-81
2023/04/27 10:56:07;;;;;;;3.03;1.63;;;;;;;;;;6256940;23;20016;-80
2023/04/27 10:58:53;;;;;;;4.07;2.15;;;;;;;;;;6257265;23;20369;-81
2023/04/27 11:01:39;;;;;;;7.13;2.15;;;;;;;;;;6234713;23;20020;-79
2023/04/27 11:04:39;;;;;;;3.00;1.55;;;;;;;;;;6256906;23;20020;-79
2023/04/27 11:07:29;;;;;;;2.40;1.42;;;;;;;;;;6235752;23;20020;-81
2023/04/27 11:10:16;;;;;;;4.93;2.25;;;;;;;;;;6255674;23;20016;-80
2023/04/27 11:13:12;;;;;;;4.88;1.98;;;;;;;;;;6257840;23;20020;-82
2023/04/27 11:15:58;;;;;;;2.72;1.92;;;;;;;;;;6257208;23;20024;-81
2023/04/27 11:18:48;;;;;;;4.88;2.03;;;;;;;;;;6235351;23;20016;-82
2023/04/27 11:21:39;;;;;;;6.30;2.42;;;;;;;;;;6235609;23;20020;-84
2023/04/27 11:24:25;;;;;;;3.28;1.73;;;;;;;;;;6256683;23;20016;-83
2023/04/27 11:27:16;;;;;;;2.05;1.38;;;;;;;;;;6235651;23;20020;-82
2023/04/27 11:30:03;;;;;;;8.35;1.73;;;;;;;;;;6258030;23;20016;-81
2023/04/27 11:32:49;;;;;;;4.18;1.70;;;;;;;;;;6234772;23;20020;-80
2023/04/27 11:35:35;;;;;;;3.22;1.27;;;;;;;;;;6256623;23;20020;-79
2023/04/27 11:38:22;;;;;;;2.10;1.10;;;;;;;;;;6224515;23;20017;-82
2023/04/27 11:41:07;;;;;;;7.93;2.60;;;;;;;;;;6255119;23;20020;-81
2023/04/27 11:44:07;;;;;;;3.60;1.45;;;;;;;;;;6255726;23;20020;-82
2023/04/27 11:47:00;;;;;;;2.70;1.77;;;;;;;;;;6235236;23;20020;-83
2023/04/27 11:49:48;;;;;;;3.47;1.73;;;;;;;;;;6234362;23;20020;-82
2023/04/27 11:52:37;;;;;;;3.35;1.60;;;;;;;;;;6256206;23;20020;-82
2023/04/27 11:55:23;;;;;;;3.55;1.83;;;;;;;;;;6234200;23;20020;-81
2023/04/27 11:58:13;;;;;;;3.35;1.85;;;;;;;;;;6233176;23;20016;-82
2023/04/27 12:00:58;;;;;;;1.65;1.10;;;;;;;;;;6233649;23;20016;-81
2023/04/27 12:03:49;;;;;;;8.93;2.80;;;;;;;;;;6256694;23;20341;-81
2023/04/27 12:06:37;;;;;;;2.33;1.38;;;;;;;;;;6233551;23;20020;-83
2023/04/27 12:09:22;;;;;;;3.00;1.58;;;;;;;;;;6233742;23;20016;-81
2023/04/27 12:12:09;;;;;;;2.25;1.38;;;;;;;;;;6255599;23;20016;-82
2023/04/27 12:15:01;;;;;;;4.00;2.08;;;;;;;;;;6255154;23;20020;-82
2023/04/27 12:17:46;;;;;;;3.35;1.45;;;;;;;;;;6255006;23;20023;-83
2023/04/27 12:20:31;;;;;;;5.35;2.10;;;;;;;;;;6256404;23;20016;-82
2023/04/27 12:23:16;;;;;;;2.03;1.40;;;;;;;;;;6249286;22;20433;-82
2023/04/27 12:26:01;;;;;;;2.63;1.40;;;;;;;;;;6212792;23;20020;-82
2023/04/27 12:28:47;;;;;;;3.72;1.67;;;;;;;;;;6254754;23;20020;-81
2023/04/27 12:31:39;;;;;;;5.82;2.17;;;;;;;;;;6235207;23;20020;-84
2023/04/27 12:34:27;;;;;;;3.53;1.25;;;;;;;;;;6233506;23;20016;-83
2023/04/27 12:37:13;;;;;;;2.72;1.70;;;;;;;;;;6233861;23;20012;-83
2023/04/27 12:39:58;;;;;;;2.70;1.25;;;;;;;;;;6255220;23;20016;-84
2023/04/27 12:42:49;;;;;;;3.30;1.50;;;;;;;;;;6254791;23;20020;-81
2023/04/27 12:45:35;;;;;;;2.17;1.60;;;;;;;;;;6257277;23;20341;-85
2023/04/27 12:48:22;;;;;;;3.35;1.50;;;;;;;;;;6233996;23;20012;-84
2023/04/27 12:51:08;;;;;;;3.50;1.92;;;;;;;;;;6235896;23;20020;-84
2023/04/27 12:54:02;;;;;;;2.58;1.35;;;;;;;;;;6237100;23;20024;-83
2023/04/27 12:56:48;;;;;;;2.67;1.42;;;;;;;;;;6235648;23;20016;-83
2023/04/27 12:59:38;;;;;;;1.30;1.20;;;;;;;;;;6216491;23;20016;-83
2023/04/27 13:02:23;;;;;;;2.75;1.63;;;;;;;;;;6235319;23;20016;-83
2023/04/27 13:05:08;;;;;;;2.92;1.50;;;;;;;;;;6258294;23;20020;-85
2023/04/27 13:07:55;;;;;;;1.30;1.17;;;;;;;;;;6257128;23;20016;-86
2023/04/27 13:10:45;;;;;;;1.73;1.38;;;;;;;;;;6236431;23;20024;-85
2023/04/27 13:13:30;;;;;;;3.55;1.42;;;;;;;;;;6257195;23;20020;-83
2023/04/27 13:16:19;;;;;;;2.42;1.50;;;;;;;;;;6257888;23;20341;-82
2023/04/27 13:19:08;;;;;;;3.38;2.10;;;;;;;;;;6236758;23;20016;-82
2023/04/27 13:21:53;;;;;;;8.70;2.25;;;;;;;;;;6234756;23;20024;-84
2023/04/27 13:24:41;;;;;;;2.38;1.60;;;;;;;;;;6255878;23;20020;-83
2023/04/27 13:27:27;;;;;;;7.68;1.50;;;;;;;;;;6256616;23;20016;-81
2023/04/27 13:30:17;;;;;;;8.63;1.80;;;;;;;;;;6236184;23;20020;-80
2023/04/27 13:33:03;;;;;;;2.33;1.50;;;;;;;;;;6257718;23;20020;-81
2023/04/27 13:35:49;;;;;;;2.80;1.88;;;;;;;;;;6236299;23;20016;-81
2023/04/27 13:38:35;;;;;;;5.60;2.15;;;;;;;;;;6235183;23;20012;-82
2023/04/27 13:41:22;;;;;;;4.95;1.95;;;;;;;;;;6258031;23;20429;-82
2023/04/27 13:44:13;;;;;;;8.75;2.70;;;;;;;;;;6257752;23;20020;-83
2023/04/27 13:46:59;;;;;;;9.75;2.17;;;;;;;;;;6235459;23;20012;-82
2023/04/27 13:49:45;;;;;;;2.60;2.13;;;;;;;;;;6235357;23;20012;-83
2023/04/27 13:52:30;;;;;;;6.95;2.13;;;;;;;;;;6257540;23;20413;-82
2023/04/27 13:55:21;;;;;;;2.80;1.88;;;;;;;;;;6257909;23;20442;-82
2023/04/27 13:58:07;;;;;;;6.82;2.20;;;;;;;;;;6256952;23;20441;-83
2023/04/27 14:00:54;;;;;;;4.85;2.00;;;;;;;;;;6256494;23;20012;-81
2023/04/27 14:03:40;;;;;;;5.97;1.90;;;;;;;;;;6256516;23;20017;-85
2023/04/27 14:06:26;;;;;;;3.03;1.50;;;;;;;;;;6235044;23;20013;-82
2023/04/27 14:09:12;;;;;;;5.97;2.30;;;;;;;;;;6256780;23;20020;-82
2023/04/27 14:12:04;;;;;;;2.70;1.85;;;;;;;;;;6256930;23;20012;-83
2023/04/27 14:14:50;;;;;;;20.05;2.53;;;;;;;;;;6235248;23;20013;-84
2023/04/27 14:17:40;;;;;;;2.72;1.90;;;;;;;;;;6256122;23;20020;-82
2023/04/27 14:20:26;;;;;;;5.45;1.58;;;;;;;;;;6233356;23;20020;-83
2023/04/27 14:23:12;;;;;;;3.30;1.45;;;;;;;;;;6233402;23;20020;-84
2023/04/27 14:26:00;;;;;;;3.10;1.55;;;;;;;;;;6255733;23;20016;-84
2023/04/27 14:28:50;;;;;;;3.55;1.67;;;;;;;;;;6255024;23;20016;-83
2023/04/27 14:31:37;;;;;;;3.40;2.17;;;;;;;;;;6256090;23;20016;-86
2023/04/27 14:34:23;;;;;;;6.68;3.58;;;;;;;;;;6233274;23;20012;-83
2023/04/27 14:37:09;;;;;;;3.00;1.65;;;;;;;;;;6255965;23;20020;-81
2023/04/27 14:39:56;;;;;;;3.17;1.90;;;;;;;;;;6233672;23;20338;-82
2023/04/27 14:42:41;;;;;;;2.83;1.60;;;;;;;;;;6257506;23;20028;-83
2023/04/27 14:45:31;;;;;;;31.80;2.28;;;;;;;;;;6235730;23;20020;-81
2023/04/27 14:48:22;;;;;;;2.75;1.75;;;;;;;;;;6235615;23;20020;-83
2023/04/27 14:51:14;;;;;;;3.03;1.50;;;;;;;;;;6236064;23;20012;-82
2023/04/27 14:54:02;;;;;;;2.95;1.52;;;;;;;;;;6256822;23;20020;-86
2023/04/27 14:56:48;;;;;;;3.58;1.40;;;;;;;;;;6234652;23;20016;-84
2023/04/27 14:59:34;;;;;;;3.72;1.60;;;;;;;;;;6256422;23;20020;-83
2023/04/27 15:02:19;;;;;;;2.97;2.28;;;;;;;;;;6233854;23;20024;-82
2023/04/27 15:05:05;;;;;;;5.65;1.90;;;;;;;;;;6233377;23;20338;-83
2023/04/27 15:07:51;;;;;;;3.10;2.10;;;;;;;;;;6257136;23;20016;-85
2023/04/27 15:10:37;;;;;;;9.27;3.67;;;;;;;;;;6254806;23;20437;-83
2023/04/27 15:13:27;;;;;;;4.50;2.13;;;;;;;;;;6256618;23;20016;-82
2023/04/27 15:16:18;;;;;;;10.88;3.60;;;;;;;;;;6234999;23;20015;-82
2023/04/27 15:19:04;;;;;;;5.07;2.20;;;;;;;;;;6255652;23;20020;-82
2023/04/27 15:21:49;;;;;;;7.13;3.25;;;;;;;;;;6254903;23;20020;-85
2023/04/27 15:24:36;;;;;;;3.83;1.98;;;;;;;;;;6234149;23;20016;-84
2023/04/27 15:27:26;;;;;;;6.00;2.13;;;;;;;;;;6235221;23;20016;-82
2023/04/27 15:30:17;;;;;;;8.27;2.67;;;;;;;;;;6256552;23;20449;-84
2023/04/27 15:33:08;;;;;;;4.68;2.67;;;;;;;;;;6214911;23;20020;-84
2023/04/27 15:35:58;;;;;;;6.78;3.03;;;;;;;;;;6234748;23;20020;-83
2023/04/27 15:38:50;;;;;;;4.85;2.03;;;;;;;;;;6235224;23;20020;-84
2023/04/27 15:41:36;;;;;;;7.53;1.70;;;;;;;;;;6255327;23;20016;-85
2023/04/27 15:44:27;;;;;;;5.80;1.50;;;;;;;;;;6232809;23;20429;-87
2023/04/27 15:47:17;;;;;;;3.63;1.60;;;;;;;;;;6234220;23;20020;-85
2023/04/27 15:50:05;;;;;;;3.15;1.70;;;;;;;;;;6254298;23;20020;-84
2023/04/27 15:52:51;;;;;;;3.28;1.98;;;;;;;;;;6233614;23;20016;-85
2023/04/27 15:55:37;;;;;;;6.50;2.10;;;;;;;;;;6234132;23;20345;-83
2023/04/27 15:58:32;;;;;;;3.85;2.17;;;;;;;;;;6233725;23;20425;-87
2023/04/27 16:01:18;;;;;;;5.05;1.77;;;;;;;;;;6256070;23;20429;-85
2023/04/27 16:21:16;;;;;;;4.97;1.88;;;;;;;;;;6256003;22;20020;-75
2023/04/27 16:24:07;;;;;;;7.85;3.38;;;;;;;;;;6288361;22;20019;-77
2023/04/27 16:26:52;;;;;;;4.22;2.05;;;;;;;;;;6287310;22;20020;-76
2023/04/27 16:29:38;;;;;;;9.23;4.57;;;;;;;;;;6286726;22;20019;-76
2023/04/27 16:32:29;;;;;;;11.07;3.85;;;;;;;;;;6287172;22;20345;-76
2023/04/27 16:35:14;;;;;;;4.43;1.95;;;;;;;;;;6287564;22;20019;-76
2023/04/27 16:38:00;;;;;;;6.20;2.60;;;;;;;;;;6287178;22;20015;-75
2023/04/27 16:40:46;;;;;;;6.60;2.00;;;;;;;;;;6289936;22;20020;-76
2023/04/27 16:43:32;;;;;;;7.28;3.85;;;;;;;;;;6288008;22;20019;-77
2023/04/27 16:46:18;;;;;;;4.43;2.42;;;;;;;;;;6287137;22;20015;-75
2023/04/27 16:49:04;;;;;;;10.45;4.13;;;;;;;;;;6286502;22;20020;-77
2023/04/27 16:51:50;;;;;;;7.20;3.53;;;;;;;;;;6287030;22;20016;-78
2023/04/27 16:54:40;;;;;;;7.32;3.42;;;;;;;;;;6286857;22;20020;-77